Arnolds Park, Iowa
Current Conditions -  °F | °C
As of 5:53 AM on Friday 21 Nov 2014 (Local Time) from KSPW Reporting Station
Clear Clear  
Wind Chill: -3°   Ceiling: Unl
Heat Index: 13°   Visibility: 10mi
Dew Point:   Wind: 15mph
Humidity: 81%   Direction: 170°S
Pressure: 30.17"   Gusts: NA
Location:  43.37°N, 95.12°W
Report Text: KSPW 211153Z AUTO 17013KT 10SM CLR M11/M13 A3017 RMK AO2 SLP248 I6000 T11061133 11100 21183 56015 TSNO $
Loading
Personal Weather Stations






























Interactive Weather Map New forecast layout! Learn more

10-Day Weather Forecast

Advertisements
Track Severe Weather on mobile